createdAt,value
2022-10-19T00:01:17.356Z,98962.50
2022-10-19T00:06:19.716Z,98956.47
2022-10-19T00:08:48.196Z,98963.31
2022-10-19T00:11:18.308Z,98949.78
2022-10-19T00:13:46.781Z,98957.88
2022-10-19T00:16:17.140Z,98952.41
2022-10-19T00:18:45.696Z,98961.88
2022-10-19T00:21:17.461Z,98953.22
2022-10-19T00:23:46.907Z,98949.97
2022-10-19T00:26:15.356Z,98941.53
2022-10-19T00:28:45.536Z,98949.00
2022-10-19T00:31:15.461Z,98945.69
2022-10-19T00:33:44.480Z,98950.41
2022-10-19T00:36:17.225Z,98947.50
2022-10-19T00:38:46.033Z,98952.03
2022-10-19T00:41:14.780Z,98952.19
2022-10-19T00:43:56.225Z,98950.13
2022-10-19T00:46:24.762Z,98953.56
2022-10-19T00:48:55.796Z,98949.69
2022-10-19T00:51:24.339Z,98944.66
2022-10-19T00:53:55.542Z,98944.97
2022-10-19T00:56:23.866Z,98939.50
2022-10-19T00:58:52.212Z,98940.72
2022-10-19T01:01:23.685Z,98927.81
2022-10-19T01:03:52.282Z,98933.19
2022-10-19T01:06:22.091Z,98917.59
2022-10-19T01:08:50.440Z,98919.69
2022-10-19T01:11:30.867Z,98916.69
2022-10-19T01:14:09.241Z,98912.75
2022-10-19T01:16:48.003Z,98917.41
2022-10-19T01:19:34.406Z,98916.56
2022-10-19T01:22:12.302Z,98921.78
2022-10-19T01:27:31.266Z,98911.72
2022-10-19T01:30:04.832Z,98901.34
2022-10-19T01:32:40.027Z,98915.91
2022-10-19T01:35:12.463Z,98913.13
2022-10-19T01:37:45.918Z,98904.66
2022-10-19T01:40:18.880Z,98902.28
2022-10-19T01:42:50.434Z,98895.53
2022-10-19T01:45:22.753Z,98897.88
2022-10-19T01:47:55.591Z,98900.09
2022-10-19T01:50:28.258Z,98908.31
2022-10-19T01:52:57.155Z,98900.44
2022-10-19T01:55:26.629Z,98914.59
2022-10-19T01:57:58.570Z,98913.22
2022-10-19T02:00:28.969Z,98908.69
2022-10-19T02:02:57.673Z,98911.34
2022-10-19T02:05:30.509Z,98909.56
2022-10-19T02:08:00.778Z,98910.47
2022-10-19T02:10:29.966Z,98903.31
2022-10-19T02:12:59.773Z,98904.09
2022-10-19T02:15:30.949Z,98904.50
2022-10-19T02:18:00.430Z,98900.56
2022-10-19T02:20:37.473Z,98901.78
2022-10-19T02:23:06.466Z,98889.09
2022-10-19T02:25:35.595Z,98884.09
2022-10-19T02:28:05.067Z,98902.78
2022-10-19T02:30:35.228Z,98897.03
2022-10-19T02:33:03.345Z,98891.63
2022-10-19T02:35:32.244Z,98887.38
2022-10-19T02:38:02.322Z,98880.00
2022-10-19T02:40:31.334Z,98880.94
2022-10-19T02:43:02.977Z,98883.19
2022-10-19T02:45:35.291Z,98895.47
2022-10-19T02:48:05.575Z,98886.66
2022-10-19T02:50:34.163Z,98884.81
2022-10-19T02:53:02.624Z,98884.78
2022-10-19T02:55:31.569Z,98889.47
2022-10-19T02:57:59.917Z,98891.78
2022-10-19T03:00:28.285Z,98892.09
2022-10-19T03:02:58.000Z,98895.31
2022-10-19T03:05:26.480Z,98891.91
2022-10-19T03:07:54.960Z,98895.13
2022-10-19T03:10:23.452Z,98897.31
2022-10-19T03:12:51.665Z,98893.75
2022-10-19T03:15:20.445Z,98893.41
2022-10-19T03:17:48.635Z,98887.56
2022-10-19T03:20:18.682Z,98887.47
2022-10-19T03:22:46.940Z,98890.25
2022-10-19T03:25:15.350Z,98887.03
2022-10-19T03:27:43.607Z,98889.00
2022-10-19T03:30:12.584Z,98887.81
2022-10-19T03:32:40.811Z,98893.41
2022-10-19T03:35:09.466Z,98888.31
2022-10-19T03:37:39.071Z,98895.56
2022-10-19T03:40:08.225Z,98876.28
2022-10-19T03:42:36.398Z,98886.50
2022-10-19T03:45:05.674Z,98879.91
2022-10-19T03:47:34.032Z,98880.31
2022-10-19T03:50:02.541Z,98886.72
2022-10-19T03:52:30.753Z,98888.50
2022-10-19T03:55:00.636Z,98879.75
2022-10-19T03:57:28.903Z,98877.25
2022-10-19T03:59:57.275Z,98888.38
2022-10-19T04:02:25.657Z,98885.13
2022-10-19T04:04:54.153Z,98886.75
2022-10-19T04:07:22.393Z,98888.22
2022-10-19T04:09:50.763Z,98896.53
2022-10-19T04:12:20.290Z,98889.50
2022-10-19T04:14:58.138Z,98888.22
2022-10-19T04:17:26.813Z,98885.28
2022-10-19T04:19:55.224Z,98884.09
2022-10-19T04:22:23.359Z,98891.47
2022-10-19T04:24:51.713Z,98891.28
2022-10-19T04:27:21.246Z,98887.06
2022-10-19T04:29:49.643Z,98893.22
2022-10-19T04:32:17.800Z,98893.72
2022-10-19T04:34:46.207Z,98889.00
2022-10-19T04:37:14.379Z,98886.53
2022-10-19T04:39:43.891Z,98888.50
2022-10-19T04:42:12.125Z,98889.47
2022-10-19T04:44:41.814Z,98885.59
2022-10-19T04:47:09.945Z,98887.84
2022-10-19T04:49:38.401Z,98883.56
2022-10-19T04:52:06.871Z,98886.66
2022-10-19T04:54:35.321Z,98877.50
2022-10-19T04:57:03.396Z,98882.47
2022-10-19T04:59:31.634Z,98885.56
2022-10-19T05:02:01.217Z,98878.00
2022-10-19T05:04:29.524Z,98876.22
2022-10-19T05:06:57.802Z,98873.25
2022-10-19T05:09:26.493Z,98870.78
2022-10-19T05:11:54.657Z,98868.94
2022-10-19T05:14:23.229Z,98869.19
2022-10-19T05:16:51.469Z,98869.56
2022-10-19T05:19:21.382Z,98865.56
2022-10-19T05:21:50.202Z,98865.13
2022-10-19T05:24:19.027Z,98862.53
2022-10-19T05:26:47.333Z,98864.03
2022-10-19T05:29:15.755Z,98862.25
2022-10-19T05:31:44.019Z,98850.69
2022-10-19T05:34:15.153Z,98846.84
2022-10-19T05:36:45.227Z,98862.41
2022-10-19T05:39:15.746Z,98859.63
2022-10-19T05:41:44.621Z,98864.38
2022-10-19T05:44:15.767Z,98871.91
2022-10-19T05:46:45.557Z,98862.25
2022-10-19T05:49:15.581Z,98865.94
2022-10-19T05:51:45.350Z,98878.06
2022-10-19T05:54:15.087Z,98885.72
2022-10-19T05:56:43.755Z,98882.53
2022-10-19T05:59:15.816Z,98886.25
2022-10-19T06:01:44.035Z,98870.75
2022-10-19T06:04:14.294Z,98875.97
2022-10-19T06:06:43.562Z,98894.50
2022-10-19T06:09:13.526Z,98895.00
2022-10-19T06:11:42.831Z,98890.47
2022-10-19T06:14:14.527Z,98891.34
2022-10-19T06:16:42.961Z,98889.88
2022-10-19T06:19:11.284Z,98893.69
2022-10-19T06:21:41.956Z,98893.50
2022-10-19T06:24:14.737Z,98899.94
2022-10-19T06:26:42.886Z,98903.84
2022-10-19T06:29:11.217Z,98897.75
2022-10-19T06:31:39.588Z,98896.28
2022-10-19T06:34:08.170Z,98906.75
2022-10-19T06:36:36.872Z,98899.88
2022-10-19T06:39:05.744Z,98899.56
2022-10-19T06:41:35.440Z,98904.47
2022-10-19T06:44:03.962Z,98895.97
2022-10-19T06:46:32.653Z,98896.44
2022-10-19T06:49:02.669Z,98905.78
2022-10-19T06:51:34.049Z,98904.44
2022-10-19T06:54:02.490Z,98910.63
2022-10-19T06:56:30.645Z,98916.31
2022-10-19T06:59:00.456Z,98919.09
2022-10-19T07:01:28.827Z,98917.09
2022-10-19T07:03:57.320Z,98927.16
2022-10-19T07:06:27.648Z,98921.19
2022-10-19T07:08:55.980Z,98918.16
2022-10-19T07:11:24.157Z,98924.53
2022-10-19T07:13:53.985Z,98935.41
2022-10-19T07:16:23.552Z,98942.25
2022-10-19T07:18:53.253Z,98935.91
2022-10-19T07:21:22.459Z,98933.97
2022-10-19T07:23:51.326Z,98947.78
2022-10-19T07:26:23.567Z,98950.66
2022-10-19T07:28:52.333Z,98938.19
2022-10-19T07:31:24.531Z,98933.84
2022-10-19T07:33:54.592Z,98936.22
2022-10-19T07:36:23.426Z,98933.06
2022-10-19T07:38:52.040Z,98930.31
2022-10-19T07:41:22.362Z,98935.53
2022-10-19T07:43:51.275Z,98937.81
2022-10-19T07:46:20.747Z,98937.75
2022-10-19T07:48:50.481Z,98933.50
2022-10-19T07:51:19.516Z,98934.81
2022-10-19T07:53:48.265Z,98930.50
2022-10-19T07:56:18.140Z,98931.19
2022-10-19T07:58:47.071Z,98937.91
2022-10-19T08:01:16.864Z,98928.63
2022-10-19T08:06:36.651Z,98927.06
2022-10-19T08:09:05.460Z,98932.78
2022-10-19T08:11:35.668Z,98939.16
2022-10-19T08:14:04.689Z,98932.63
2022-10-19T08:16:36.693Z,98947.00
2022-10-19T08:19:07.191Z,98939.00
2022-10-19T08:21:37.700Z,98944.50
2022-10-19T08:24:06.846Z,98943.13
2022-10-19T08:26:36.701Z,98935.28
2022-10-19T08:29:06.598Z,98937.66
2022-10-19T08:31:34.989Z,98940.75
2022-10-19T08:34:03.395Z,98924.97
2022-10-19T08:36:32.781Z,98923.53
2022-10-19T08:39:03.205Z,98911.84
2022-10-19T08:41:34.794Z,98926.06
2022-10-19T08:44:20.359Z,98925.06
2022-10-19T08:46:53.752Z,98933.19
2022-10-19T08:49:25.488Z,98934.38
2022-10-19T08:51:56.066Z,98931.34
2022-10-19T08:54:28.641Z,98934.59
2022-10-19T08:57:06.067Z,98931.22
2022-10-19T08:59:40.441Z,98941.66
2022-10-19T09:02:15.511Z,98943.84
2022-10-19T09:04:47.017Z,98948.00
2022-10-19T09:07:26.082Z,98946.81
2022-10-19T09:09:58.808Z,98945.13
2022-10-19T09:12:34.985Z,98949.50
2022-10-19T09:15:06.006Z,98958.97
2022-10-19T09:17:34.308Z,98958.25
2022-10-19T09:20:15.729Z,98959.25
2022-10-19T09:22:44.896Z,98967.50
2022-10-19T09:25:19.953Z,98964.13
2022-10-19T09:27:50.242Z,98956.31
2022-10-19T09:30:21.199Z,98954.34
2022-10-19T09:32:50.469Z,98957.84
2022-10-19T09:35:24.247Z,98959.34
2022-10-19T09:37:52.966Z,98954.28
2022-10-19T09:40:25.951Z,98948.91
2022-10-19T09:42:58.527Z,98955.78
2022-10-19T09:45:35.314Z,98964.25
2022-10-19T09:48:12.194Z,98948.66
2022-10-19T09:50:44.985Z,98955.81
2022-10-19T09:53:19.183Z,98960.72
2022-10-19T09:55:58.511Z,98960.13
2022-10-19T09:58:32.075Z,98967.09
2022-10-19T10:01:03.110Z,98970.09
2022-10-19T10:03:33.275Z,98963.38
2022-10-19T10:06:04.586Z,98959.66
2022-10-19T10:08:34.932Z,98963.44
2022-10-19T10:11:10.251Z,98977.50
2022-10-19T10:13:40.183Z,98975.47
2022-10-19T10:16:10.458Z,98973.91
2022-10-19T10:18:45.676Z,98967.34
2022-10-19T10:21:17.072Z,98961.34
2022-10-19T10:24:00.548Z,98964.22
2022-10-19T10:26:30.398Z,98956.72
2022-10-19T10:29:01.354Z,98951.13
2022-10-19T10:31:31.180Z,98954.94
2022-10-19T10:34:10.922Z,98963.19
2022-10-19T10:36:52.579Z,98954.38
2022-10-19T10:39:20.789Z,98959.06
2022-10-19T10:41:50.540Z,98967.28
2022-10-19T10:44:20.962Z,98966.00
2022-10-19T10:46:53.278Z,98959.41
2022-10-19T10:49:26.193Z,98967.84
2022-10-19T10:51:56.547Z,98964.44
2022-10-19T10:54:26.841Z,98958.84
2022-10-19T10:57:13.160Z,98956.94
2022-10-19T10:59:48.342Z,98958.41
2022-10-19T11:02:29.625Z,98961.41
2022-10-19T11:05:01.209Z,98961.91
2022-10-19T11:07:30.145Z,98955.91
2022-10-19T11:10:00.436Z,98957.84
2022-10-19T11:12:35.765Z,98959.88
2022-10-19T11:15:12.443Z,98960.78
2022-10-19T11:17:54.866Z,98958.38
2022-10-19T11:20:24.282Z,98952.13
2022-10-19T11:22:59.486Z,98957.78
2022-10-19T11:25:37.515Z,98945.38
2022-10-19T11:28:16.669Z,98947.81
2022-10-19T11:30:55.597Z,98943.34
2022-10-19T11:33:36.205Z,98938.53
2022-10-19T11:36:12.909Z,98944.94
2022-10-19T11:38:51.804Z,98935.88
2022-10-19T11:41:28.508Z,98934.69
2022-10-19T11:44:10.574Z,98938.59
2022-10-19T11:46:42.831Z,98932.56
2022-10-19T11:49:22.820Z,98931.72
2022-10-19T11:51:57.544Z,98927.97
2022-10-19T11:54:35.510Z,98927.41
2022-10-19T11:57:11.354Z,98929.16
2022-10-19T11:59:52.567Z,98923.47
2022-10-19T12:02:39.267Z,98928.75
2022-10-19T12:05:11.468Z,98930.53
2022-10-19T12:07:56.663Z,98923.47
2022-10-19T12:10:30.454Z,98917.78
2022-10-19T12:13:02.357Z,98917.22
2022-10-19T12:15:35.320Z,98909.94
2022-10-19T12:18:10.198Z,98909.50
2022-10-19T12:20:41.305Z,98919.81
2022-10-19T12:23:23.126Z,98909.75
2022-10-19T12:25:52.406Z,98912.84
2022-10-19T12:28:23.729Z,98904.59
2022-10-19T12:30:53.271Z,98910.66
2022-10-19T12:33:24.934Z,98906.63
2022-10-19T12:36:02.190Z,98902.81
2022-10-19T12:38:42.281Z,98902.00
2022-10-19T12:41:21.462Z,98904.78
2022-10-19T12:44:01.899Z,98894.97
2022-10-19T12:46:37.324Z,98902.72
2022-10-19T12:49:38.564Z,98904.31
2022-10-19T12:52:08.330Z,98908.91
2022-10-19T12:54:39.482Z,98906.09
2022-10-19T12:57:22.850Z,98910.44
2022-10-19T13:00:00.637Z,98902.66
2022-10-19T13:05:01.501Z,98908.69
2022-10-19T13:07:37.286Z,98917.09
2022-10-19T13:10:07.389Z,98924.22
2022-10-19T13:12:44.827Z,98919.09
2022-10-19T13:15:49.521Z,98913.13
2022-10-19T13:19:02.729Z,98906.41
2022-10-19T13:21:54.087Z,98912.31
2022-10-19T13:24:34.701Z,98909.34
2022-10-19T13:27:27.363Z,98914.75
2022-10-19T13:29:55.781Z,98902.53
2022-10-19T13:32:48.035Z,98914.88
2022-10-19T13:35:31.628Z,98922.47
2022-10-19T13:38:24.320Z,98917.06
2022-10-19T13:41:08.041Z,98926.25
2022-10-19T13:43:40.327Z,98923.75
2022-10-19T13:46:14.933Z,98927.13
2022-10-19T13:49:04.858Z,98910.72
2022-10-19T13:51:38.779Z,98909.25
2022-10-19T13:54:17.782Z,98921.41
2022-10-19T13:56:57.350Z,98917.91
2022-10-19T13:59:57.562Z,98915.31
2022-10-19T14:02:55.176Z,98915.13
2022-10-19T14:08:22.733Z,98915.47
2022-10-19T14:11:01.098Z,98917.00
2022-10-19T14:13:30.545Z,98916.28
2022-10-19T14:16:00.658Z,98918.25
2022-10-19T14:18:31.271Z,98921.66
2022-10-19T14:21:00.833Z,98923.47
2022-10-19T14:23:31.848Z,98934.59
2022-10-19T14:26:01.383Z,98922.09
2022-10-19T14:28:29.897Z,98924.06
2022-10-19T14:30:59.983Z,98930.50
2022-10-19T14:33:28.763Z,98928.78
2022-10-19T14:35:57.423Z,98927.97
2022-10-19T14:38:32.862Z,98927.41
2022-10-19T14:41:01.169Z,98923.91
2022-10-19T14:43:30.936Z,98915.91
2022-10-19T14:46:14.604Z,98922.50
2022-10-19T14:48:45.564Z,98911.75
2022-10-19T14:51:28.057Z,98927.34
2022-10-19T14:54:00.637Z,98928.47
2022-10-19T14:56:34.854Z,98926.25
2022-10-19T14:59:06.205Z,98922.94
2022-10-19T15:01:35.026Z,98921.97
2022-10-19T15:04:03.788Z,98915.75
2022-10-19T15:06:35.727Z,98929.50
2022-10-19T15:09:12.101Z,98925.72
2022-10-19T15:11:49.858Z,98928.69
2022-10-19T15:14:22.037Z,98936.53
2022-10-19T15:16:53.362Z,98921.91
2022-10-19T15:19:27.786Z,98929.75
2022-10-19T15:22:13.180Z,98931.94
2022-10-19T15:24:57.160Z,98939.31
2022-10-19T15:27:31.259Z,98941.63
2022-10-19T15:30:05.660Z,98940.63
2022-10-19T15:32:36.606Z,98939.22
2022-10-19T15:35:12.996Z,98940.91
2022-10-19T15:37:43.656Z,98948.53
2022-10-19T15:40:18.431Z,98951.13
2022-10-19T15:42:48.800Z,98944.84
2022-10-19T15:45:35.598Z,98949.06
2022-10-19T15:48:20.299Z,98943.66
2022-10-19T15:50:49.622Z,98947.44
2022-10-19T15:53:18.012Z,98962.13
2022-10-19T15:55:48.057Z,98957.22
2022-10-19T15:58:16.483Z,98969.81
2022-10-19T16:00:45.468Z,98966.56
2022-10-19T16:03:14.079Z,98977.03
2022-10-19T16:05:42.380Z,98971.69
2022-10-19T16:08:12.477Z,98966.53
2022-10-19T16:10:40.979Z,98974.03
2022-10-19T16:13:10.445Z,98969.63
2022-10-19T16:15:38.766Z,98985.25
2022-10-19T16:18:06.872Z,98990.66
2022-10-19T16:20:35.259Z,98987.91
2022-10-19T16:23:03.656Z,98997.72
2022-10-19T16:25:31.995Z,99003.69
2022-10-19T16:28:03.148Z,98987.28
2022-10-19T16:30:32.859Z,98992.06
2022-10-19T16:33:01.098Z,98998.53
2022-10-19T16:35:29.330Z,98991.69
2022-10-19T16:37:59.170Z,99002.03
2022-10-19T16:40:27.517Z,99004.53
2022-10-19T16:42:58.853Z,99010.13
2022-10-19T16:45:27.299Z,99007.59
2022-10-19T16:47:56.856Z,99006.09
2022-10-19T16:50:25.318Z,99009.38
2022-10-19T16:53:04.935Z,99005.38
2022-10-19T16:55:33.901Z,99012.03
2022-10-19T16:58:01.984Z,99013.59
2022-10-19T17:00:30.485Z,99018.13
2022-10-19T17:03:00.113Z,99021.78
2022-10-19T17:05:28.493Z,99023.22
2022-10-19T17:07:56.627Z,99030.50
2022-10-19T17:10:25.176Z,99027.09
2022-10-19T17:12:53.420Z,99029.81
2022-10-19T17:15:42.065Z,99029.94
2022-10-19T17:18:11.457Z,99024.22
2022-10-19T17:20:39.957Z,99035.66
2022-10-19T17:23:08.072Z,99031.56
2022-10-19T17:25:36.454Z,99037.59
2022-10-19T17:28:04.645Z,99030.19
2022-10-19T17:30:32.978Z,99034.53
2022-10-19T17:33:01.027Z,99040.28
2022-10-19T17:35:30.769Z,99049.69
2022-10-19T17:37:59.064Z,99055.56
2022-10-19T17:40:27.540Z,99059.66
2022-10-19T17:42:55.686Z,99060.22
2022-10-19T17:45:24.103Z,99052.78
2022-10-19T17:47:52.191Z,99060.91
2022-10-19T17:50:20.575Z,99067.53
2022-10-19T17:52:50.076Z,99070.47
2022-10-19T17:55:18.652Z,99073.59
2022-10-19T17:57:46.921Z,99077.81
2022-10-19T18:00:16.239Z,99075.13
2022-10-19T18:02:45.910Z,99082.03
2022-10-19T18:05:14.417Z,99070.94
2022-10-19T18:07:44.782Z,99075.06
2022-10-19T18:10:15.520Z,99079.78
2022-10-19T18:12:43.592Z,99084.28
2022-10-19T18:15:11.920Z,99077.63
2022-10-19T18:17:40.325Z,99077.44
2022-10-19T18:20:09.954Z,99081.16
2022-10-19T18:22:38.413Z,99077.81
2022-10-19T18:25:07.502Z,99075.38
2022-10-19T18:27:37.590Z,99084.38
2022-10-19T18:30:06.814Z,99079.38
2022-10-19T18:32:36.205Z,99077.06
2022-10-19T18:35:05.190Z,99080.34
2022-10-19T18:37:33.302Z,99080.44
2022-10-19T18:40:01.721Z,99078.00
2022-10-19T18:42:30.633Z,99085.78
2022-10-19T18:45:00.670Z,99086.69
2022-10-19T18:47:28.793Z,99083.22
2022-10-19T18:49:57.417Z,99092.56
2022-10-19T18:52:25.587Z,99089.16
2022-10-19T18:54:53.961Z,99095.94
2022-10-19T18:57:22.194Z,99098.56
2022-10-19T18:59:50.698Z,99097.13
2022-10-19T19:02:22.700Z,99103.19
2022-10-19T19:04:56.634Z,99099.28
2022-10-19T19:07:24.870Z,99101.84
2022-10-19T19:09:53.211Z,99101.03
2022-10-19T19:12:22.615Z,99109.63
2022-10-19T19:14:50.982Z,99103.59
2022-10-19T19:17:20.452Z,99104.69
2022-10-19T19:19:48.858Z,99110.06
2022-10-19T19:22:18.044Z,99113.09
2022-10-19T19:24:46.756Z,99108.31
2022-10-19T19:27:15.000Z,99120.88
2022-10-19T19:29:44.008Z,99120.34
2022-10-19T19:32:12.119Z,99126.56
2022-10-19T19:34:41.808Z,99127.72
2022-10-19T19:37:11.237Z,99127.84
2022-10-19T19:39:39.973Z,99135.94
2022-10-19T19:42:08.778Z,99133.78
2022-10-19T19:44:37.110Z,99140.31
2022-10-19T19:47:05.907Z,99136.88
2022-10-19T19:49:34.378Z,99141.28
2022-10-19T19:52:03.950Z,99145.97
2022-10-19T19:54:32.539Z,99146.13
2022-10-19T19:57:00.674Z,99144.19
2022-10-19T19:59:30.414Z,99154.25
2022-10-19T20:01:58.579Z,99155.91
2022-10-19T20:04:27.232Z,99156.34
2022-10-19T20:06:55.321Z,99158.50
2022-10-19T20:09:25.107Z,99171.34
2022-10-19T20:11:53.275Z,99171.09
2022-10-19T20:14:21.666Z,99166.44
2022-10-19T20:16:49.783Z,99166.25
2022-10-19T20:19:18.254Z,99165.53
2022-10-19T20:21:46.279Z,99160.09
2022-10-19T20:24:14.666Z,99161.88
2022-10-19T20:26:44.120Z,99164.78
2022-10-19T20:29:12.551Z,99162.75
2022-10-19T20:31:41.390Z,99169.69
2022-10-19T20:34:14.853Z,99173.56
2022-10-19T20:36:43.183Z,99186.91
2022-10-19T20:39:11.874Z,99180.38
2022-10-19T20:41:39.947Z,99178.78
2022-10-19T20:44:09.685Z,99178.13
2022-10-19T20:46:37.862Z,99181.59
2022-10-19T20:49:07.430Z,99178.59
2022-10-19T20:51:37.165Z,99169.81
2022-10-19T20:54:07.535Z,99171.16
2022-10-19T20:56:37.054Z,99174.03
2022-10-19T20:59:07.352Z,99173.09
2022-10-19T21:01:38.615Z,99172.97
2022-10-19T21:04:07.693Z,99172.31
2022-10-19T21:06:39.582Z,99174.22
2022-10-19T21:09:08.720Z,99176.25
2022-10-19T21:11:38.534Z,99184.47
2022-10-19T21:14:09.762Z,99173.06
2022-10-19T21:16:39.669Z,99174.19
2022-10-19T21:19:09.604Z,99179.06
2022-10-19T21:21:41.625Z,99179.84
2022-10-19T21:24:12.809Z,99180.19
2022-10-19T21:26:41.122Z,99176.16
2022-10-19T21:29:10.700Z,99179.00
2022-10-19T21:31:47.830Z,99171.44
2022-10-19T21:34:21.430Z,99169.84
2022-10-19T21:36:49.747Z,99177.03
2022-10-19T21:39:18.757Z,99166.22
2022-10-19T21:41:47.377Z,99173.78
2022-10-19T21:44:16.474Z,99178.28
2022-10-19T21:46:48.227Z,99172.59
2022-10-19T21:49:16.589Z,99169.16
2022-10-19T21:51:45.935Z,99172.84
2022-10-19T21:54:15.637Z,99168.78
2022-10-19T21:56:43.893Z,99178.63
2022-10-19T21:59:13.142Z,99178.00
2022-10-19T22:01:41.909Z,99179.41
2022-10-19T22:04:14.162Z,99178.00
2022-10-19T22:06:42.710Z,99174.47
2022-10-19T22:09:14.645Z,99174.81
2022-10-19T22:11:42.945Z,99184.75
2022-10-19T22:14:13.308Z,99179.06
2022-10-19T22:16:41.961Z,99182.25
2022-10-19T22:19:12.004Z,99188.97
2022-10-19T22:21:40.355Z,99182.06
2022-10-19T22:24:11.635Z,99186.34
2022-10-19T22:26:42.024Z,99185.22
2022-10-19T22:29:10.563Z,99184.88
2022-10-19T22:31:39.464Z,99191.38
2022-10-19T22:34:09.589Z,99181.94
2022-10-19T22:36:39.310Z,99184.16
2022-10-19T22:39:08.404Z,99188.84
2022-10-19T22:42:31.789Z,99187.72
2022-10-19T22:45:00.485Z,99193.75
2022-10-19T22:47:28.662Z,99191.03
2022-10-19T22:49:57.189Z,99190.72
2022-10-19T22:52:26.843Z,99191.41
2022-10-19T22:54:55.419Z,99194.06
2022-10-19T22:57:23.804Z,99192.75
2022-10-19T22:59:52.179Z,99198.22
2022-10-19T23:02:20.391Z,99203.44
2022-10-19T23:04:48.862Z,99205.94
2022-10-19T23:07:17.075Z,99201.53
2022-10-19T23:09:46.888Z,99203.38
2022-10-19T23:12:15.027Z,99196.03
2022-10-19T23:14:43.626Z,99200.47
2022-10-19T23:17:11.911Z,99202.09
2022-10-19T23:19:40.346Z,99205.66
2022-10-19T23:22:08.424Z,99212.84
2022-10-19T23:24:36.807Z,99221.06
2022-10-19T23:27:06.386Z,99215.19
2022-10-19T23:29:34.919Z,99214.22
2022-10-19T23:32:03.061Z,99209.28
2022-10-19T23:34:31.412Z,99217.50
2022-10-19T23:36:59.649Z,99214.50
2022-10-19T23:39:28.029Z,99223.59
2022-10-19T23:41:56.133Z,99229.06
2022-10-19T23:44:25.899Z,99225.44
2022-10-19T23:46:54.274Z,99226.31
2022-10-19T23:49:22.529Z,99231.56
2022-10-19T23:51:50.671Z,99227.47
2022-10-19T23:54:18.970Z,99230.22
2022-10-19T23:56:47.019Z,99225.81
2022-10-19T23:59:15.536Z,99234.59
